createdAt,value
2022-12-22T00:01:03.857Z,5.5
2022-12-22T00:03:03.588Z,5.5
2022-12-22T00:07:04.031Z,5.5
2022-12-22T00:09:06.131Z,5.5
2022-12-22T00:13:04.848Z,5.5
2022-12-22T00:15:03.395Z,5.7
2022-12-22T00:17:06.085Z,5.6
2022-12-22T00:19:03.016Z,5.6
2022-12-22T00:21:00.696Z,5.7
2022-12-22T00:23:05.879Z,5.7
2022-12-22T00:25:03.150Z,5.8
2022-12-22T00:27:03.375Z,5.7
2022-12-22T00:31:05.395Z,5.9
2022-12-22T00:33:04.293Z,5.7
2022-12-22T00:35:05.611Z,5.7
2022-12-22T00:37:05.140Z,5.7
2022-12-22T00:39:02.475Z,5.7
2022-12-22T00:41:06.068Z,5.5
2022-12-22T00:43:00.268Z,5.4
2022-12-22T00:45:02.500Z,5.3
2022-12-22T00:47:06.218Z,5.4
2022-12-22T00:49:06.366Z,5.4
2022-12-22T00:51:02.129Z,5.5
2022-12-22T00:53:06.143Z,5.4
2022-12-22T00:55:03.396Z,5.6
2022-12-22T00:57:06.318Z,5.6
2022-12-22T00:59:05.697Z,5.6
2022-12-22T01:01:02.623Z,5.6
2022-12-22T01:03:06.598Z,5.7
2022-12-22T01:07:02.551Z,5.7
2022-12-22T01:09:04.843Z,5.7
2022-12-22T01:13:04.888Z,5.6
2022-12-22T01:15:05.910Z,5.6
2022-12-22T01:19:05.603Z,5.7
2022-12-22T01:21:02.742Z,5.8
2022-12-22T01:25:05.431Z,6
2022-12-22T01:27:03.926Z,6
2022-12-22T01:31:02.409Z,6.3
2022-12-22T01:33:05.165Z,6.3
2022-12-22T01:35:05.894Z,6.3
2022-12-22T01:37:05.306Z,6.3
2022-12-22T01:39:01.243Z,6.3
2022-12-22T01:43:04.035Z,6.3
2022-12-22T01:45:03.000Z,6.3
2022-12-22T01:47:06.063Z,6.3
2022-12-22T01:49:03.912Z,6.3
2022-12-22T01:51:03.554Z,6.3
2022-12-22T01:53:05.364Z,6.3
2022-12-22T01:55:02.909Z,6.3
2022-12-22T01:57:00.321Z,6.2
2022-12-22T01:59:06.059Z,6.1
2022-12-22T02:01:02.105Z,6.1
2022-12-22T02:03:00.857Z,6.1
2022-12-22T02:05:06.051Z,6
2022-12-22T02:07:04.500Z,6
2022-12-22T02:09:01.790Z,6
2022-12-22T02:13:03.638Z,6
2022-12-22T02:15:01.927Z,6
2022-12-22T02:19:06.346Z,6.2
2022-12-22T02:21:01.199Z,6.2
2022-12-22T02:25:03.723Z,6.3
2022-12-22T02:27:05.400Z,6.3
2022-12-22T02:29:05.362Z,6.2
2022-12-22T02:31:04.421Z,6.2
2022-12-22T02:33:09.751Z,6.3
2022-12-22T02:35:06.273Z,6.3
2022-12-22T02:37:05.710Z,6.3
2022-12-22T02:39:01.371Z,6.2
2022-12-22T02:41:06.086Z,6.2
2022-12-22T02:43:05.623Z,6.2
2022-12-22T02:45:04.072Z,6.2
2022-12-22T02:47:05.760Z,6.3
2022-12-22T02:49:02.050Z,6.3
2022-12-22T02:51:03.561Z,6.4
2022-12-22T02:53:06.111Z,6.4
2022-12-22T02:55:02.168Z,6.4
2022-12-22T02:57:06.310Z,6.4
2022-12-22T02:59:06.029Z,6.5
2022-12-22T03:01:05.993Z,6.5
2022-12-22T03:03:03.371Z,6.6
2022-12-22T03:07:03.280Z,6.6
2022-12-22T03:09:03.500Z,6.5
2022-12-22T03:11:05.258Z,6.6
2022-12-22T03:13:03.124Z,6.6
2022-12-22T03:15:03.874Z,6.5
2022-12-22T03:19:05.108Z,6.6
2022-12-22T03:21:02.748Z,6.5
2022-12-22T03:23:06.459Z,6.5
2022-12-22T03:25:00.624Z,6.5
2022-12-22T03:27:03.707Z,6.6
2022-12-22T03:29:05.939Z,6.6
2022-12-22T03:31:04.520Z,6.6
2022-12-22T03:33:04.849Z,6.5
2022-12-22T03:35:05.553Z,6.5
2022-12-22T03:37:03.198Z,6.4
2022-12-22T03:39:00.791Z,6.5
2022-12-22T03:43:00.872Z,6.5
2022-12-22T03:45:00.601Z,6.5
2022-12-22T03:47:06.036Z,6.6
2022-12-22T03:49:05.835Z,6.5
2022-12-22T03:51:03.296Z,6.5
2022-12-22T03:53:06.011Z,6.5
2022-12-22T03:55:03.522Z,6.5
2022-12-22T03:57:05.651Z,6.5
2022-12-22T04:01:00.886Z,6.5
2022-12-22T04:03:02.814Z,6.4
2022-12-22T04:05:01.254Z,6.5
2022-12-22T04:07:06.660Z,6.5
2022-12-22T04:09:02.513Z,6.6
2022-12-22T04:11:06.456Z,6.6
2022-12-22T04:13:02.668Z,6.6
2022-12-22T04:15:04.162Z,6.6
2022-12-22T04:17:06.172Z,6.6
2022-12-22T04:19:02.537Z,6.7
2022-12-22T04:21:03.377Z,6.7
2022-12-22T04:23:05.680Z,6.7
2022-12-22T04:25:03.411Z,6.7
2022-12-22T04:27:06.082Z,6.7
2022-12-22T04:29:05.932Z,6.7
2022-12-22T04:31:04.134Z,6.7
2022-12-22T04:33:04.336Z,6.7
2022-12-22T04:37:10.019Z,6.7
2022-12-22T04:39:04.009Z,6.7
2022-12-22T04:41:05.430Z,6.8
2022-12-22T04:43:09.710Z,6.6
2022-12-22T04:45:01.979Z,6.7
2022-12-22T04:49:04.315Z,6.6
2022-12-22T04:51:04.168Z,6.8
2022-12-22T04:53:05.640Z,6.8
2022-12-22T04:55:02.112Z,6.6
2022-12-22T04:57:01.131Z,6.7
2022-12-22T04:59:06.346Z,6.8
2022-12-22T05:00:59.950Z,6.8
2022-12-22T05:03:05.520Z,6.7
2022-12-22T05:05:06.083Z,6.6
2022-12-22T05:07:01.466Z,6.6
2022-12-22T05:09:04.393Z,6.7
2022-12-22T05:11:05.895Z,6.7
2022-12-22T05:13:03.090Z,6.8
2022-12-22T05:15:03.100Z,6.7
2022-12-22T05:17:05.967Z,6.7
2022-12-22T05:19:06.099Z,6.7
2022-12-22T05:21:03.331Z,6.6
2022-12-22T05:23:05.440Z,6.5
2022-12-22T05:25:01.702Z,6.5
2022-12-22T05:27:03.034Z,6.6
2022-12-22T05:29:06.171Z,6.6
2022-12-22T05:31:01.889Z,6.5
2022-12-22T05:33:05.325Z,6.7
2022-12-22T05:35:06.016Z,6.6
2022-12-22T05:37:05.404Z,6.6
2022-12-22T05:39:02.109Z,6.8
2022-12-22T05:41:05.882Z,6.9
2022-12-22T05:43:03.342Z,6.9
2022-12-22T05:45:04.642Z,7
2022-12-22T05:49:02.075Z,7
2022-12-22T05:51:01.221Z,7
2022-12-22T05:55:00.982Z,6.9
2022-12-22T05:57:05.423Z,7
2022-12-22T05:59:06.252Z,7
2022-12-22T06:01:03.129Z,7.1
2022-12-22T06:03:03.698Z,7.1
2022-12-22T06:07:02.139Z,7.1
2022-12-22T06:09:05.736Z,7.2
2022-12-22T06:13:03.030Z,7.2
2022-12-22T06:15:04.683Z,7.3
2022-12-22T06:19:01.760Z,7.3
2022-12-22T06:21:00.997Z,7.4
2022-12-22T06:23:05.862Z,7.4
2022-12-22T06:25:04.612Z,7.4
2022-12-22T06:27:00.819Z,7.4
2022-12-22T06:29:06.606Z,7.5
2022-12-22T06:31:01.785Z,7.5
2022-12-22T06:33:04.024Z,7.4
2022-12-22T06:35:06.153Z,7.5
2022-12-22T06:37:02.233Z,7.4
2022-12-22T06:39:04.661Z,7.4
2022-12-22T06:41:06.249Z,7.4
2022-12-22T06:43:08.859Z,7.3
2022-12-22T06:45:04.402Z,7.5
2022-12-22T06:49:05.975Z,7.3
2022-12-22T06:51:05.787Z,7.4
2022-12-22T06:55:04.451Z,7.4
2022-12-22T06:57:04.353Z,7.4
2022-12-22T07:01:03.172Z,7.5
2022-12-22T07:03:03.227Z,7.4
2022-12-22T07:05:05.936Z,7.4
2022-12-22T07:09:58.574Z,7.5
2022-12-22T07:12:02.684Z,7.4
2022-12-22T07:13:55.195Z,7.3
2022-12-22T07:16:00.419Z,7.3
2022-12-22T07:17:56.984Z,7.1
2022-12-22T07:19:55.513Z,7.2
2022-12-22T07:21:55.576Z,7.2
2022-12-22T07:23:56.941Z,7.2
2022-12-22T07:25:59.806Z,7.2
2022-12-22T07:28:00.533Z,7.2
2022-12-22T07:30:02.348Z,7.2
2022-12-22T07:31:55.612Z,7.2
2022-12-22T07:33:57.977Z,7.4
2022-12-22T07:35:58.337Z,7.4
2022-12-22T07:38:03.515Z,7.4
2022-12-22T07:39:58.869Z,7.3
2022-12-22T07:42:01.134Z,7.4
2022-12-22T07:44:03.378Z,7.5
2022-12-22T07:46:01.293Z,7.4
2022-12-22T07:47:55.167Z,7.2
2022-12-22T07:50:03.063Z,7.3
2022-12-22T07:51:58.013Z,7.3
2022-12-22T07:54:02.984Z,7.3
2022-12-22T07:56:00.226Z,7.2
2022-12-22T07:57:57.526Z,7.3
2022-12-22T07:59:56.607Z,7.4
2022-12-22T08:01:55.766Z,7.6
2022-12-22T08:03:55.608Z,7.7
2022-12-22T08:06:01.502Z,7.7
2022-12-22T08:07:57.270Z,7.9
2022-12-22T08:09:56.132Z,8
2022-12-22T08:12:00.981Z,8
2022-12-22T08:14:02.278Z,8.1
2022-12-22T08:16:03.042Z,8.1
2022-12-22T08:18:01.043Z,8.1
2022-12-22T08:20:01.536Z,8.1
2022-12-22T08:21:55.193Z,8.1
2022-12-22T08:23:55.634Z,8.1
2022-12-22T08:27:58.571Z,8.2
2022-12-22T08:29:55.534Z,8.3
2022-12-22T08:32:02.166Z,8.3
2022-12-22T08:33:58.401Z,8.5
2022-12-22T08:36:01.263Z,8.5
2022-12-22T08:37:55.928Z,8.6
2022-12-22T08:40:03.394Z,8.6
2022-12-22T08:42:02.555Z,8.6
2022-12-22T08:44:02.167Z,8.5
2022-12-22T08:46:01.702Z,8.5
2022-12-22T08:47:57.170Z,8.5
2022-12-22T08:49:57.428Z,8.5
2022-12-22T08:51:55.235Z,8.5
2022-12-22T08:54:05.282Z,8.5
2022-12-22T08:56:01.783Z,8.5
2022-12-22T08:57:56.588Z,8.5
2022-12-22T09:00:04.299Z,8.5
2022-12-22T09:02:00.870Z,8.5
2022-12-22T09:03:58.040Z,8.5
2022-12-22T09:05:58.500Z,8.5
2022-12-22T09:07:58.878Z,8.5
2022-12-22T09:09:55.592Z,8.5
2022-12-22T09:11:58.208Z,8.5
2022-12-22T09:14:03.399Z,8.5
2022-12-22T09:15:59.650Z,8.5
2022-12-22T09:17:55.232Z,8.6
2022-12-22T09:20:00.047Z,8.6
2022-12-22T09:21:56.725Z,8.6
2022-12-22T09:23:57.187Z,8.7
2022-12-22T09:26:01.679Z,8.7
2022-12-22T09:28:00.422Z,8.7
2022-12-22T09:29:55.237Z,8.7
2022-12-22T09:32:03.459Z,8.7
2022-12-22T09:33:58.422Z,8.7
2022-12-22T09:36:03.957Z,8.7
2022-12-22T09:37:57.060Z,8.7
2022-12-22T09:39:55.581Z,8.7
2022-12-22T09:42:02.666Z,8.7
2022-12-22T09:44:02.166Z,8.7
2022-12-22T09:45:55.260Z,8.7
2022-12-22T09:48:01.384Z,8.7
2022-12-22T09:49:57.269Z,8.7
2022-12-22T09:51:55.652Z,8.7
2022-12-22T09:53:57.294Z,8.7
2022-12-22T09:56:00.311Z,8.8
2022-12-22T09:57:57.183Z,8.8
2022-12-22T10:00:02.993Z,8.8
2022-12-22T10:01:58.069Z,8.8
2022-12-22T10:04:01.038Z,8.8
2022-12-22T10:06:02.636Z,8.8
2022-12-22T10:08:03.021Z,8.8
2022-12-22T10:10:03.053Z,8.8
2022-12-22T10:13:55.246Z,8.9
2022-12-22T10:16:02.513Z,8.9
2022-12-22T10:18:00.719Z,8.9
2022-12-22T10:19:59.177Z,8.9
2022-12-22T10:22:02.838Z,8.9
2022-12-22T10:24:01.763Z,8.9
2022-12-22T10:26:29.475Z,8.9
2022-12-22T10:27:55.665Z,8.9
2022-12-22T10:30:01.852Z,8.9
2022-12-22T10:31:56.021Z,8.9
2022-12-22T10:33:55.620Z,8.9
2022-12-22T10:35:58.431Z,8.9
2022-12-22T10:37:55.633Z,9
2022-12-22T10:39:59.166Z,9
2022-12-22T10:41:55.638Z,9
2022-12-22T10:44:03.428Z,9.1
2022-12-22T10:48:03.145Z,9
2022-12-22T10:52:02.073Z,9
2022-12-22T10:54:03.845Z,9
2022-12-22T10:55:58.096Z,9
2022-12-22T10:58:03.635Z,8.9
2022-12-22T11:00:03.236Z,8.9
2022-12-22T11:01:59.760Z,8.8
2022-12-22T11:03:57.850Z,8.7
2022-12-22T11:05:56.377Z,8.6
2022-12-22T11:07:58.411Z,8.6
2022-12-22T11:10:00.534Z,8.6
2022-12-22T11:11:59.213Z,8.4
2022-12-22T11:13:58.100Z,8.4
2022-12-22T11:15:57.086Z,8.3
2022-12-22T11:17:55.257Z,8.2
2022-12-22T11:19:58.559Z,8.1
2022-12-22T11:21:58.606Z,8.2
2022-12-22T11:24:02.656Z,8.1
2022-12-22T11:25:56.128Z,8.1
2022-12-22T11:27:57.206Z,8.1
2022-12-22T11:30:00.924Z,8.1
2022-12-22T11:32:01.636Z,8.1
2022-12-22T11:34:03.352Z,8.1
2022-12-22T11:35:55.204Z,8.1
2022-12-22T11:37:57.692Z,8.1
2022-12-22T11:40:00.729Z,8.1
2022-12-22T11:41:55.635Z,8.2
2022-12-22T11:43:59.541Z,8.4
2022-12-22T11:45:59.378Z,8.3
2022-12-22T11:48:00.954Z,8.2
2022-12-22T11:50:00.305Z,8.2
2022-12-22T11:52:04.132Z,8.2
2022-12-22T11:53:58.131Z,8.3
2022-12-22T11:55:58.052Z,8.4
2022-12-22T11:58:02.106Z,8.4
2022-12-22T12:00:04.594Z,8.4
2022-12-22T12:02:02.408Z,8.5
2022-12-22T12:04:02.374Z,8.5
2022-12-22T12:05:59.021Z,8.5
2022-12-22T12:08:02.552Z,8.5
2022-12-22T12:09:56.693Z,8.6
2022-12-22T12:12:01.640Z,8.6
2022-12-22T12:13:58.045Z,8.7
2022-12-22T12:15:59.136Z,8.7
2022-12-22T12:17:55.678Z,8.6
2022-12-22T12:20:03.654Z,8.6
2022-12-22T12:22:02.991Z,8.6
2022-12-22T12:23:57.032Z,8.7
2022-12-22T12:25:55.605Z,8.7
2022-12-22T12:27:59.298Z,8.6
2022-12-22T12:30:36.071Z,8.6
2022-12-22T12:32:03.355Z,8.7
2022-12-22T12:33:55.282Z,8.8
2022-12-22T12:35:59.194Z,8.8
2022-12-22T12:38:03.681Z,8.8
2022-12-22T12:39:57.898Z,8.7
2022-12-22T12:41:57.587Z,8.7
2022-12-22T12:43:57.358Z,8.8
2022-12-22T12:46:04.229Z,8.8
2022-12-22T12:47:58.107Z,8.7
2022-12-22T12:50:00.514Z,8.8
2022-12-22T12:54:03.628Z,8.9
2022-12-22T12:55:56.654Z,8.8
2022-12-22T12:58:04.664Z,8.8
2022-12-22T13:00:04.258Z,8.8
2022-12-22T13:02:03.175Z,8.8
2022-12-22T13:04:03.436Z,8.8
2022-12-22T13:05:55.687Z,8.9
2022-12-22T13:08:03.504Z,8.9
2022-12-22T13:09:57.459Z,8.8
2022-12-22T13:12:12.041Z,9
2022-12-22T13:14:04.467Z,9
2022-12-22T13:15:56.095Z,9
2022-12-22T13:17:56.100Z,9
2022-12-22T13:20:02.138Z,9
2022-12-22T13:22:02.220Z,9.1
2022-12-22T13:24:23.280Z,9.1
2022-12-22T13:25:55.717Z,9.1
2022-12-22T13:28:00.524Z,9.1
2022-12-22T13:29:57.558Z,9.1
2022-12-22T13:31:58.377Z,9.2
2022-12-22T13:34:02.962Z,9.2
2022-12-22T13:36:01.724Z,9.2
2022-12-22T13:37:54.989Z,9.3
2022-12-22T13:39:59.820Z,9.3
2022-12-22T13:42:03.804Z,9.3
2022-12-22T13:44:04.052Z,9.3
2022-12-22T13:45:58.657Z,9.3
2022-12-22T13:47:58.596Z,9.3
2022-12-22T13:50:09.541Z,9.4
2022-12-22T13:54:10.787Z,9.4
2022-12-22T13:55:57.181Z,9.4
2022-12-22T13:58:02.343Z,9.3
2022-12-22T13:59:57.083Z,9.3
2022-12-22T14:01:57.792Z,9.4
2022-12-22T14:04:03.681Z,9.3
2022-12-22T14:06:01.328Z,9.3
2022-12-22T14:07:58.206Z,9.2
2022-12-22T14:09:55.308Z,9.3
2022-12-22T14:12:02.655Z,9.2
2022-12-22T14:14:02.609Z,9.2
2022-12-22T14:16:03.290Z,9.2
2022-12-22T14:17:55.822Z,9.2
2022-12-22T14:19:55.325Z,9.3
2022-12-22T14:21:55.326Z,9.3
2022-12-22T14:23:57.271Z,9.2
2022-12-22T14:26:03.092Z,9.2
2022-12-22T14:27:57.888Z,9.1
2022-12-22T14:30:01.989Z,9.1
2022-12-22T14:32:01.846Z,9.2
2022-12-22T14:33:57.452Z,9.1
2022-12-22T14:35:58.829Z,9.1
2022-12-22T14:37:55.049Z,9.3
2022-12-22T14:39:56.616Z,9.2
2022-12-22T14:42:01.481Z,9.1
2022-12-22T14:43:58.382Z,9.3
2022-12-22T14:46:00.716Z,9.3
2022-12-22T14:47:59.015Z,9.4
2022-12-22T14:50:02.922Z,9.4
2022-12-22T14:52:01.199Z,9.4
2022-12-22T14:54:02.856Z,9.4
2022-12-22T14:55:55.193Z,9.4
2022-12-22T14:58:00.541Z,9.4
2022-12-22T15:00:01.735Z,9.3
2022-12-22T15:01:58.461Z,9.3
2022-12-22T15:03:58.499Z,9.4
2022-12-22T15:06:04.350Z,9.4
2022-12-22T15:08:07.056Z,9.4
2022-12-22T15:10:15.512Z,9.4
2022-12-22T15:12:01.467Z,9.4
2022-12-22T15:13:58.686Z,9.4
2022-12-22T15:15:57.782Z,9.3
2022-12-22T15:17:56.614Z,9.4
2022-12-22T15:20:03.029Z,9.3
2022-12-22T15:21:57.249Z,9.2
2022-12-22T15:23:56.934Z,9.4
2022-12-22T15:25:57.896Z,9.3
2022-12-22T15:28:02.122Z,9.2
2022-12-22T15:29:58.861Z,9.4
2022-12-22T15:33:57.327Z,9.3
2022-12-22T15:36:00.957Z,9.4
2022-12-22T15:38:00.222Z,9.3
2022-12-22T15:40:03.256Z,9.2
2022-12-22T15:41:54.816Z,9.4
2022-12-22T15:44:00.171Z,9.4
2022-12-22T15:45:59.241Z,9.4
2022-12-22T15:48:01.965Z,9.3
2022-12-22T15:49:56.967Z,9.2
2022-12-22T15:53:59.482Z,9.3
2022-12-22T15:56:00.869Z,9.4
2022-12-22T15:58:03.605Z,9.3
2022-12-22T16:00:01.042Z,9.3
2022-12-22T16:02:03.825Z,9.4
2022-12-22T16:03:57.627Z,9.4
2022-12-22T16:06:00.961Z,9.3
2022-12-22T16:07:59.057Z,9.3
2022-12-22T16:10:00.067Z,9.4
2022-12-22T16:12:02.741Z,9.3
2022-12-22T16:14:05.113Z,9.2
2022-12-22T16:15:58.017Z,9.2
2022-12-22T16:18:00.767Z,9.2
2022-12-22T16:20:03.689Z,9.2
2022-12-22T16:22:01.757Z,9.2
2022-12-22T16:23:57.584Z,9.2
2022-12-22T16:26:04.100Z,9.2
2022-12-22T16:28:01.095Z,9.2
2022-12-22T16:30:01.908Z,9.2
2022-12-22T16:32:03.437Z,9.2
2022-12-22T16:34:01.324Z,9.2
2022-12-22T16:36:00.934Z,9.3
2022-12-22T16:38:00.490Z,9.3
2022-12-22T16:39:59.056Z,9.2
2022-12-22T16:42:02.125Z,9.2
2022-12-22T16:45:08.053Z,9.2
2022-12-22T16:45:58.166Z,9.3
2022-12-22T16:48:02.181Z,9.2
2022-12-22T16:50:03.584Z,9.1
2022-12-22T16:51:58.388Z,9.3
2022-12-22T16:54:02.801Z,9.2
2022-12-22T16:55:55.805Z,9.3
2022-12-22T16:58:01.350Z,9.3
2022-12-22T16:59:57.719Z,9.4
2022-12-22T17:01:59.534Z,9.1
2022-12-22T17:04:03.720Z,9.3
2022-12-22T17:06:03.048Z,9.2
2022-12-22T17:08:01.771Z,9.2
2022-12-22T17:09:59.405Z,9.3
2022-12-22T17:11:59.001Z,9.2
2022-12-22T17:13:56.869Z,9.2
2022-12-22T17:16:01.522Z,9.2
2022-12-22T17:18:02.812Z,9.1
2022-12-22T17:19:59.198Z,9.1
2022-12-22T17:21:57.164Z,9
2022-12-22T17:24:01.990Z,9.1
2022-12-22T17:26:02.368Z,8.9
2022-12-22T17:27:59.123Z,8.8
2022-12-22T17:30:00.522Z,8.9
2022-12-22T17:31:58.691Z,9
2022-12-22T17:34:04.570Z,8.8
2022-12-22T17:36:02.684Z,8.9
2022-12-22T17:38:03.137Z,8.8
2022-12-22T17:40:02.544Z,8.7
2022-12-22T17:41:57.698Z,8.8
2022-12-22T17:43:58.189Z,8.7
2022-12-22T17:46:02.481Z,8.5
2022-12-22T17:48:04.120Z,8.5
2022-12-22T17:49:55.080Z,8.6
2022-12-22T17:52:01.345Z,8.6
2022-12-22T17:54:01.045Z,8.6
2022-12-22T17:56:08.055Z,8.6
2022-12-22T17:57:57.025Z,8.6
2022-12-22T18:00:04.829Z,8.7
2022-12-22T18:01:58.157Z,8.7
2022-12-22T18:04:01.061Z,8.6
2022-12-22T18:05:58.639Z,8.6
2022-12-22T18:07:58.864Z,8.7
2022-12-22T18:10:04.513Z,8.7
2022-12-22T18:11:58.310Z,8.6
2022-12-22T18:14:01.168Z,8.7
2022-12-22T18:15:58.080Z,8.7
2022-12-22T18:18:03.822Z,8.7
2022-12-22T18:19:59.820Z,8.6
2022-12-22T18:22:01.959Z,8.6
2022-12-22T18:23:58.597Z,8.6
2022-12-22T18:25:56.917Z,8.6
2022-12-22T18:27:55.849Z,8.7
2022-12-22T18:29:57.583Z,8.7
2022-12-22T18:31:59.787Z,8.6
2022-12-22T18:33:55.466Z,8.4
2022-12-22T18:35:55.126Z,8.5
2022-12-22T18:38:00.425Z,8.4
2022-12-22T18:39:58.721Z,8.4
2022-12-22T18:41:59.274Z,8.2
2022-12-22T18:44:03.738Z,8.3
2022-12-22T18:46:00.885Z,8.2
2022-12-22T18:48:01.377Z,8.3
2022-12-22T18:50:04.878Z,8.3
2022-12-22T18:52:03.851Z,8.3
2022-12-22T18:54:01.063Z,8.2
2022-12-22T18:56:03.298Z,8.2
2022-12-22T18:57:57.736Z,8.4
2022-12-22T18:59:57.437Z,8.2
2022-12-22T19:02:00.630Z,8.2
2022-12-22T19:03:59.183Z,8
2022-12-22T19:06:00.438Z,8
2022-12-22T19:07:59.684Z,8
2022-12-22T19:09:56.893Z,8
2022-12-22T19:12:00.787Z,7.9
2022-12-22T19:14:00.979Z,7.9
2022-12-22T19:16:03.703Z,7.9
2022-12-22T19:17:59.703Z,7.8
2022-12-22T19:20:03.235Z,8
2022-12-22T19:21:56.893Z,7.9
2022-12-22T19:24:02.797Z,7.8
2022-12-22T19:27:57.379Z,7.8
2022-12-22T19:31:59.636Z,7.7
2022-12-22T19:33:59.367Z,7.8
2022-12-22T19:36:03.391Z,7.9
2022-12-22T19:38:02.856Z,7.8
2022-12-22T19:40:01.891Z,7.8
2022-12-22T19:41:57.347Z,7.8
2022-12-22T19:44:01.877Z,7.8
2022-12-22T19:46:04.539Z,7.8
2022-12-22T19:47:59.402Z,7.8
2022-12-22T19:49:58.146Z,7.9
2022-12-22T19:52:00.356Z,7.9
2022-12-22T19:53:55.660Z,7.9
2022-12-22T19:55:56.472Z,7.9
2022-12-22T19:57:58.880Z,8
2022-12-22T20:00:04.564Z,8
2022-12-22T20:02:02.831Z,8.1
2022-12-22T20:03:57.064Z,8.1
2022-12-22T20:05:59.250Z,8.1
2022-12-22T20:07:55.999Z,8.1
2022-12-22T20:10:01.835Z,8.2
2022-12-22T20:11:57.901Z,8.2
2022-12-22T20:14:00.271Z,8.2
2022-12-22T20:15:55.650Z,8.2
2022-12-22T20:17:55.579Z,8.2
2022-12-22T20:20:04.605Z,8.4
2022-12-22T20:22:02.832Z,8.2
2022-12-22T20:24:01.925Z,8.2
2022-12-22T20:26:00.117Z,8.2
2022-12-22T20:27:55.915Z,8.3
2022-12-22T20:30:04.041Z,8.2
2022-12-22T20:31:59.190Z,8.2
2022-12-22T20:33:57.519Z,8.2
2022-12-22T20:35:59.830Z,8.2
2022-12-22T20:37:57.921Z,8.2
2022-12-22T20:43:57.557Z,8.2
2022-12-22T20:45:59.404Z,8.4
2022-12-22T20:48:04.150Z,8.3
2022-12-22T20:50:00.977Z,8.3
2022-12-22T20:51:56.264Z,8.3
2022-12-22T20:54:01.766Z,8.3
2022-12-22T20:56:00.981Z,8.2
2022-12-22T20:57:57.431Z,8.3
2022-12-22T20:59:59.560Z,8.4
2022-12-22T21:01:58.397Z,8.3
2022-12-22T21:04:02.425Z,8.4
2022-12-22T21:05:57.393Z,8.4
2022-12-22T21:07:59.203Z,8.2
2022-12-22T21:10:03.741Z,8.3
2022-12-22T21:11:58.738Z,8.3
2022-12-22T21:13:59.244Z,8.2
2022-12-22T21:16:02.113Z,8.2
2022-12-22T21:18:02.795Z,8.2
2022-12-22T21:20:01.958Z,8.4
2022-12-22T21:21:57.937Z,8.5
2022-12-22T21:23:57.424Z,8.4
2022-12-22T21:25:59.528Z,8.4
2022-12-22T21:27:56.385Z,8.5
2022-12-22T21:29:58.087Z,8.4
2022-12-22T21:32:03.424Z,8.6
2022-12-22T21:33:55.982Z,8.5
2022-12-22T21:35:58.545Z,8.4
2022-12-22T21:37:58.232Z,8.4
2022-12-22T21:40:00.891Z,8.4
2022-12-22T21:42:02.805Z,8.4
2022-12-22T21:43:56.010Z,8.4
2022-12-22T21:45:56.553Z,8.2
2022-12-22T21:47:59.906Z,8.2
2022-12-22T21:50:01.623Z,8.1
2022-12-22T21:51:57.877Z,8.1
2022-12-22T21:54:01.920Z,8.2
2022-12-22T21:56:01.345Z,8
2022-12-22T21:58:02.241Z,8
2022-12-22T21:59:56.007Z,8
2022-12-22T22:01:58.906Z,8
2022-12-22T22:03:56.024Z,8
2022-12-22T22:06:00.195Z,7.9
2022-12-22T22:07:57.435Z,7.9
2022-12-22T22:09:58.128Z,7.9
2022-12-22T22:11:57.779Z,7.9
2022-12-22T22:14:02.715Z,7.9
2022-12-22T22:15:59.480Z,7.9
2022-12-22T22:18:07.121Z,7.9
2022-12-22T22:19:57.454Z,7.8
2022-12-22T22:22:00.914Z,7.8
2022-12-22T22:23:57.464Z,7.8
2022-12-22T22:25:57.411Z,7.8
2022-12-22T22:27:59.763Z,7.8
2022-12-22T22:29:58.870Z,7.8
2022-12-22T22:32:00.671Z,7.7
2022-12-22T22:34:02.405Z,7.7
2022-12-22T22:36:02.204Z,7.7
2022-12-22T22:38:01.076Z,7.7
2022-12-22T22:40:01.278Z,7.7
2022-12-22T22:41:55.946Z,7.7
2022-12-22T22:43:56.026Z,7.8
2022-12-22T22:45:57.994Z,7.9
2022-12-22T22:48:01.941Z,7.9
2022-12-22T22:49:59.551Z,7.9
2022-12-22T22:51:59.088Z,7.8
2022-12-22T22:53:59.564Z,7.7
2022-12-22T22:56:04.102Z,7.8
2022-12-22T22:57:58.785Z,7.7
2022-12-22T22:59:56.007Z,7.7
2022-12-22T23:02:04.030Z,7.7
2022-12-22T23:03:57.863Z,7.7
2022-12-22T23:05:57.014Z,7.6
2022-12-22T23:07:55.976Z,7.6
2022-12-22T23:10:00.770Z,7.6
2022-12-22T23:11:57.391Z,7.6
2022-12-22T23:13:58.618Z,7.6
2022-12-22T23:15:55.782Z,7.7
2022-12-22T23:18:00.744Z,7.6
2022-12-22T23:20:01.200Z,7.6
2022-12-22T23:22:04.471Z,7.6
2022-12-22T23:23:57.374Z,7.5
2022-12-22T23:26:01.540Z,7.6
2022-12-22T23:27:59.755Z,7.5
2022-12-22T23:29:59.309Z,7.5
2022-12-22T23:31:57.453Z,7.5
2022-12-22T23:33:57.475Z,7.6
2022-12-22T23:36:00.112Z,7.5
2022-12-22T23:38:01.803Z,7.5
2022-12-22T23:40:25.527Z,7.5
2022-12-22T23:42:00.431Z,7.5
2022-12-22T23:44:03.504Z,7.5
2022-12-22T23:46:00.364Z,7.5
2022-12-22T23:47:57.349Z,7.5
2022-12-22T23:49:58.943Z,7.5
2022-12-22T23:51:55.635Z,7.5
2022-12-22T23:53:57.447Z,7.6
2022-12-22T23:56:02.399Z,7.5
2022-12-22T23:58:00.808Z,7.5
2022-12-22T23:59:56.017Z,7.5
